sensor_id;sensor_type;location;lat;lon;timestamp;temperature;humidity
13850;DHT22;6995;52.618;13.488;2023-02-14T00:01:20;6.80;99.90
13850;DHT22;6995;52.618;13.488;2023-02-14T00:03:49;6.70;99.90
13850;DHT22;6995;52.618;13.488;2023-02-14T00:06:16;6.70;99.90
13850;DHT22;6995;52.618;13.488;2023-02-14T00:08:42;6.70;99.90
13850;DHT22;6995;52.618;13.488;2023-02-14T00:11:11;6.70;99.90
13850;DHT22;6995;52.618;13.488;2023-02-14T00:13:40;6.70;99.90
13850;DHT22;6995;52.618;13.488;2023-02-14T00:16:28;6.70;99.90
13850;DHT22;6995;52.618;13.488;2023-02-14T00:18:57;6.70;99.90
13850;DHT22;6995;52.618;13.488;2023-02-14T00:21:34;6.80;99.90
13850;DHT22;6995;52.618;13.488;2023-02-14T00:24:06;6.70;99.90
13850;DHT22;6995;52.618;13.488;2023-02-14T00:26:35;6.70;99.90
13850;DHT22;6995;52.618;13.488;2023-02-14T00:29:09;6.80;99.90
13850;DHT22;6995;52.618;13.488;2023-02-14T00:31:36;6.80;99.90
13850;DHT22;6995;52.618;13.488;2023-02-14T00:34:03;6.80;99.90
13850;DHT22;6995;52.618;13.488;2023-02-14T00:36:37;6.80;99.90
13850;DHT22;6995;52.618;13.488;2023-02-14T00:39:09;6.70;99.90
13850;DHT22;6995;52.618;13.488;2023-02-14T00:41:35;6.70;99.90
13850;DHT22;6995;52.618;13.488;2023-02-14T00:44:04;6.70;99.90
13850;DHT22;6995;52.618;13.488;2023-02-14T00:46:38;6.70;99.90
13850;DHT22;6995;52.618;13.488;2023-02-14T00:49:10;6.70;99.90
13850;DHT22;6995;52.618;13.488;2023-02-14T00:51:38;6.80;99.90
13850;DHT22;6995;52.618;13.488;2023-02-14T00:54:07;6.80;99.90
13850;DHT22;6995;52.618;13.488;2023-02-14T00:56:33;6.70;99.90
13850;DHT22;6995;52.618;13.488;2023-02-14T00:59:04;6.80;99.90
13850;DHT22;6995;52.618;13.488;2023-02-14T01:01:35;6.70;99.90
13850;DHT22;6995;52.618;13.488;2023-02-14T01:04:02;6.70;99.90
13850;DHT22;6995;52.618;13.488;2023-02-14T01:06:35;6.70;99.90
13850;DHT22;6995;52.618;13.488;2023-02-14T01:09:02;6.70;99.90
13850;DHT22;6995;52.618;13.488;2023-02-14T01:11:33;6.70;99.90
13850;DHT22;6995;52.618;13.488;2023-02-14T01:13:59;6.70;99.90
13850;DHT22;6995;52.618;13.488;2023-02-14T01:16:31;6.80;99.90
13850;DHT22;6995;52.618;13.488;2023-02-14T01:18:59;6.70;99.90
13850;DHT22;6995;52.618;13.488;2023-02-14T01:21:37;6.70;99.90
13850;DHT22;6995;52.618;13.488;2023-02-14T01:24:06;6.70;99.90
13850;DHT22;6995;52.618;13.488;2023-02-14T01:26:45;6.70;99.90
13850;DHT22;6995;52.618;13.488;2023-02-14T01:29:27;6.60;99.90
13850;DHT22;6995;52.618;13.488;2023-02-14T01:34:34;6.70;99.90
13850;DHT22;6995;52.618;13.488;2023-02-14T01:37:00;6.70;99.90
13850;DHT22;6995;52.618;13.488;2023-02-14T01:39:39;6.70;99.90
13850;DHT22;6995;52.618;13.488;2023-02-14T01:42:05;6.70;99.90
13850;DHT22;6995;52.618;13.488;2023-02-14T01:46:57;6.70;99.90
13850;DHT22;6995;52.618;13.488;2023-02-14T01:49:30;6.70;99.90
13850;DHT22;6995;52.618;13.488;2023-02-14T01:52:11;6.60;99.90
13850;DHT22;6995;52.618;13.488;2023-02-14T01:54:45;6.60;99.90
13850;DHT22;6995;52.618;13.488;2023-02-14T01:57:13;6.60;99.90
13850;DHT22;6995;52.618;13.488;2023-02-14T01:59:44;6.60;99.90
13850;DHT22;6995;52.618;13.488;2023-02-14T02:02:14;6.60;99.90
13850;DHT22;6995;52.618;13.488;2023-02-14T02:04:58;6.50;99.90
13850;DHT22;6995;52.618;13.488;2023-02-14T02:07:25;6.50;99.90
13850;DHT22;6995;52.618;13.488;2023-02-14T02:09:57;6.50;99.90
13850;DHT22;6995;52.618;13.488;2023-02-14T02:12:25;6.50;99.90
13850;DHT22;6995;52.618;13.488;2023-02-14T02:14:54;6.50;99.90
13850;DHT22;6995;52.618;13.488;2023-02-14T02:26:54;6.60;99.90
13850;DHT22;6995;52.618;13.488;2023-02-14T02:46:08;6.40;99.90
13850;DHT22;6995;52.618;13.488;2023-02-14T02:52:22;6.40;99.90
13850;DHT22;6995;52.618;13.488;2023-02-14T02:55:22;6.40;99.90
13850;DHT22;6995;52.618;13.488;2023-02-14T02:57:54;6.40;99.90
13850;DHT22;6995;52.618;13.488;2023-02-14T03:00:32;6.50;99.90
13850;DHT22;6995;52.618;13.488;2023-02-14T03:03:06;6.40;99.90
13850;DHT22;6995;52.618;13.488;2023-02-14T03:05:50;6.50;99.90
13850;DHT22;6995;52.618;13.488;2023-02-14T03:08:41;6.50;99.90
13850;DHT22;6995;52.618;13.488;2023-02-14T03:11:11;6.50;99.90
13850;DHT22;6995;52.618;13.488;2023-02-14T03:16:45;6.40;99.90
13850;DHT22;6995;52.618;13.488;2023-02-14T03:25:27;6.40;99.90
13850;DHT22;6995;52.618;13.488;2023-02-14T03:28:16;6.40;99.90
13850;DHT22;6995;52.618;13.488;2023-02-14T03:31:28;6.40;99.90
13850;DHT22;6995;52.618;13.488;2023-02-14T03:34:05;6.30;99.90
13850;DHT22;6995;52.618;13.488;2023-02-14T03:36:49;6.30;99.90
13850;DHT22;6995;52.618;13.488;2023-02-14T03:39:27;6.30;99.90
13850;DHT22;6995;52.618;13.488;2023-02-14T03:42:18;6.30;99.90
13850;DHT22;6995;52.618;13.488;2023-02-14T03:44:51;6.30;99.90
13850;DHT22;6995;52.618;13.488;2023-02-14T03:47:27;6.30;99.90
13850;DHT22;6995;52.618;13.488;2023-02-14T03:50:11;6.30;99.90
13850;DHT22;6995;52.618;13.488;2023-02-14T03:52:42;6.30;99.90
13850;DHT22;6995;52.618;13.488;2023-02-14T03:55:12;6.30;99.90
13850;DHT22;6995;52.618;13.488;2023-02-14T03:58:05;6.30;99.90
13850;DHT22;6995;52.618;13.488;2023-02-14T04:00:37;6.40;99.90
13850;DHT22;6995;52.618;13.488;2023-02-14T04:03:23;6.40;99.90
13850;DHT22;6995;52.618;13.488;2023-02-14T04:06:18;6.40;99.90
13850;DHT22;6995;52.618;13.488;2023-02-14T04:08:51;6.30;99.90
13850;DHT22;6995;52.618;13.488;2023-02-14T04:11:22;6.30;99.90
13850;DHT22;6995;52.618;13.488;2023-02-14T04:13:53;6.30;99.90
13850;DHT22;6995;52.618;13.488;2023-02-14T04:16:24;6.40;99.90
13850;DHT22;6995;52.618;13.488;2023-02-14T04:18:57;6.40;99.90
13850;DHT22;6995;52.618;13.488;2023-02-14T04:21:41;6.40;99.90
13850;DHT22;6995;52.618;13.488;2023-02-14T04:24:07;6.40;99.90
13850;DHT22;6995;52.618;13.488;2023-02-14T04:26:38;6.40;99.90
13850;DHT22;6995;52.618;13.488;2023-02-14T04:29:22;6.40;99.90
13850;DHT22;6995;52.618;13.488;2023-02-14T04:31:56;6.40;99.90
13850;DHT22;6995;52.618;13.488;2023-02-14T04:34:33;6.40;99.90
13850;DHT22;6995;52.618;13.488;2023-02-14T04:37:06;6.40;99.90
13850;DHT22;6995;52.618;13.488;2023-02-14T04:39:33;6.40;99.90
13850;DHT22;6995;52.618;13.488;2023-02-14T04:42:02;6.50;99.90
13850;DHT22;6995;52.618;13.488;2023-02-14T04:44:31;6.40;99.90
13850;DHT22;6995;52.618;13.488;2023-02-14T04:47:03;6.40;99.90
13850;DHT22;6995;52.618;13.488;2023-02-14T04:49:38;6.40;99.90
13850;DHT22;6995;52.618;13.488;2023-02-14T04:52:14;6.40;99.90
13850;DHT22;6995;52.618;13.488;2023-02-14T04:54:41;6.40;99.90
13850;DHT22;6995;52.618;13.488;2023-02-14T04:57:07;6.50;99.90
13850;DHT22;6995;52.618;13.488;2023-02-14T04:59:36;6.50;99.90
13850;DHT22;6995;52.618;13.488;2023-02-14T05:02:03;6.50;99.90
13850;DHT22;6995;52.618;13.488;2023-02-14T05:04:35;6.50;99.90
13850;DHT22;6995;52.618;13.488;2023-02-14T05:07:07;6.50;99.90
13850;DHT22;6995;52.618;13.488;2023-02-14T05:09:33;6.50;99.90
13850;DHT22;6995;52.618;13.488;2023-02-14T05:11:59;6.40;99.90
13850;DHT22;6995;52.618;13.488;2023-02-14T05:14:25;6.30;99.90
13850;DHT22;6995;52.618;13.488;2023-02-14T05:16:51;6.40;99.90
13850;DHT22;6995;52.618;13.488;2023-02-14T05:19:23;6.40;99.90
13850;DHT22;6995;52.618;13.488;2023-02-14T05:22:06;6.40;99.90
13850;DHT22;6995;52.618;13.488;2023-02-14T05:24:35;6.40;99.90
13850;DHT22;6995;52.618;13.488;2023-02-14T05:27:07;6.30;99.90
13850;DHT22;6995;52.618;13.488;2023-02-14T05:29:41;6.30;99.90
13850;DHT22;6995;52.618;13.488;2023-02-14T05:32:12;6.30;99.90
13850;DHT22;6995;52.618;13.488;2023-02-14T05:34:41;6.40;99.90
13850;DHT22;6995;52.618;13.488;2023-02-14T05:37:11;6.40;99.90
13850;DHT22;6995;52.618;13.488;2023-02-14T05:39:42;6.40;99.90
13850;DHT22;6995;52.618;13.488;2023-02-14T05:42:21;6.30;99.90
13850;DHT22;6995;52.618;13.488;2023-02-14T05:44:54;6.30;99.90
13850;DHT22;6995;52.618;13.488;2023-02-14T05:47:27;6.30;99.90
13850;DHT22;6995;52.618;13.488;2023-02-14T05:50:06;6.40;99.90
13850;DHT22;6995;52.618;13.488;2023-02-14T05:52:41;6.40;99.90
13850;DHT22;6995;52.618;13.488;2023-02-14T05:55:12;6.40;99.90
13850;DHT22;6995;52.618;13.488;2023-02-14T05:57:39;6.40;99.90
13850;DHT22;6995;52.618;13.488;2023-02-14T06:00:25;6.40;99.90
13850;DHT22;6995;52.618;13.488;2023-02-14T06:02:55;6.30;99.90
13850;DHT22;6995;52.618;13.488;2023-02-14T06:05:23;6.20;99.90
13850;DHT22;6995;52.618;13.488;2023-02-14T06:07:49;6.20;99.90
13850;DHT22;6995;52.618;13.488;2023-02-14T06:10:24;6.20;99.90
13850;DHT22;6995;52.618;13.488;2023-02-14T06:12:52;6.30;99.90
13850;DHT22;6995;52.618;13.488;2023-02-14T06:15:35;6.30;99.90
13850;DHT22;6995;52.618;13.488;2023-02-14T06:18:06;6.30;99.90
13850;DHT22;6995;52.618;13.488;2023-02-14T06:20:41;6.30;99.90
13850;DHT22;6995;52.618;13.488;2023-02-14T06:23:07;6.30;99.90
13850;DHT22;6995;52.618;13.488;2023-02-14T06:25:39;6.30;99.90
13850;DHT22;6995;52.618;13.488;2023-02-14T06:28:10;6.20;99.90
13850;DHT22;6995;52.618;13.488;2023-02-14T06:30:43;6.20;99.90
13850;DHT22;6995;52.618;13.488;2023-02-14T06:33:16;6.30;99.90
13850;DHT22;6995;52.618;13.488;2023-02-14T06:35:44;6.20;99.90
13850;DHT22;6995;52.618;13.488;2023-02-14T06:38:16;6.10;99.90
13850;DHT22;6995;52.618;13.488;2023-02-14T06:40:48;6.10;99.90
13850;DHT22;6995;52.618;13.488;2023-02-14T06:43:26;6.20;99.90
13850;DHT22;6995;52.618;13.488;2023-02-14T06:46:24;6.20;99.90
13850;DHT22;6995;52.618;13.488;2023-02-14T06:49:01;6.30;99.90
13850;DHT22;6995;52.618;13.488;2023-02-14T06:51:33;6.30;99.90
13850;DHT22;6995;52.618;13.488;2023-02-14T06:54:28;6.30;99.90
13850;DHT22;6995;52.618;13.488;2023-02-14T06:57:19;6.30;99.90
13850;DHT22;6995;52.618;13.488;2023-02-14T06:59:50;6.30;99.90
13850;DHT22;6995;52.618;13.488;2023-02-14T07:02:17;6.30;99.90
13850;DHT22;6995;52.618;13.488;2023-02-14T07:04:46;6.30;99.90
13850;DHT22;6995;52.618;13.488;2023-02-14T07:14:52;6.40;99.90
13850;DHT22;6995;52.618;13.488;2023-02-14T07:17:40;6.40;99.90
13850;DHT22;6995;52.618;13.488;2023-02-14T07:20:10;6.40;99.90
13850;DHT22;6995;52.618;13.488;2023-02-14T07:22:39;6.50;99.90
13850;DHT22;6995;52.618;13.488;2023-02-14T07:25:11;6.50;99.90
13850;DHT22;6995;52.618;13.488;2023-02-14T07:27:44;6.50;99.90
13850;DHT22;6995;52.618;13.488;2023-02-14T07:30:15;6.40;99.90
13850;DHT22;6995;52.618;13.488;2023-02-14T07:32:47;6.50;99.90
13850;DHT22;6995;52.618;13.488;2023-02-14T07:35:19;6.50;99.90
13850;DHT22;6995;52.618;13.488;2023-02-14T07:37:52;6.60;99.90
13850;DHT22;6995;52.618;13.488;2023-02-14T07:40:27;6.70;99.90
13850;DHT22;6995;52.618;13.488;2023-02-14T07:43:01;6.70;99.90
13850;DHT22;6995;52.618;13.488;2023-02-14T07:45:47;6.70;99.90
13850;DHT22;6995;52.618;13.488;2023-02-14T07:48:28;6.70;99.90
13850;DHT22;6995;52.618;13.488;2023-02-14T07:51:08;6.70;99.90
13850;DHT22;6995;52.618;13.488;2023-02-14T07:53:39;6.70;99.90
13850;DHT22;6995;52.618;13.488;2023-02-14T07:56:15;6.70;99.90
13850;DHT22;6995;52.618;13.488;2023-02-14T07:58:46;6.80;99.90
13850;DHT22;6995;52.618;13.488;2023-02-14T08:01:16;6.80;99.90
13850;DHT22;6995;52.618;13.488;2023-02-14T08:03:48;6.90;99.90
13850;DHT22;6995;52.618;13.488;2023-02-14T08:06:20;6.90;99.90
13850;DHT22;6995;52.618;13.488;2023-02-14T08:08:53;7.00;99.90
13850;DHT22;6995;52.618;13.488;2023-02-14T08:11:19;7.00;99.90
13850;DHT22;6995;52.618;13.488;2023-02-14T08:14:10;7.00;99.90
13850;DHT22;6995;52.618;13.488;2023-02-14T08:16:50;7.10;99.90
13850;DHT22;6995;52.618;13.488;2023-02-14T08:19:23;7.10;99.90
13850;DHT22;6995;52.618;13.488;2023-02-14T08:22:09;7.10;99.90
13850;DHT22;6995;52.618;13.488;2023-02-14T08:24:35;7.10;99.90
13850;DHT22;6995;52.618;13.488;2023-02-14T08:27:01;7.20;99.90
13850;DHT22;6995;52.618;13.488;2023-02-14T08:29:50;7.20;99.90
13850;DHT22;6995;52.618;13.488;2023-02-14T08:32:18;7.30;99.90
13850;DHT22;6995;52.618;13.488;2023-02-14T08:34:45;7.40;99.90
13850;DHT22;6995;52.618;13.488;2023-02-14T08:44:10;7.40;99.90
13850;DHT22;6995;52.618;13.488;2023-02-14T08:47:45;7.50;99.90
13850;DHT22;6995;52.618;13.488;2023-02-14T08:51:05;7.60;99.90
13850;DHT22;6995;52.618;13.488;2023-02-14T08:57:00;7.50;99.90
13850;DHT22;6995;52.618;13.488;2023-02-14T08:59:40;7.50;99.90
13850;DHT22;6995;52.618;13.488;2023-02-14T09:02:50;7.60;99.90
13850;DHT22;6995;52.618;13.488;2023-02-14T09:05:25;7.60;99.90
13850;DHT22;6995;52.618;13.488;2023-02-14T09:08:32;7.60;99.90
13850;DHT22;6995;52.618;13.488;2023-02-14T09:11:14;7.70;99.90
13850;DHT22;6995;52.618;13.488;2023-02-14T11:33:43;9.10;99.90
13850;DHT22;6995;52.618;13.488;2023-02-14T11:36:12;9.20;99.90
13850;DHT22;6995;52.618;13.488;2023-02-14T11:38:40;9.10;99.90
13850;DHT22;6995;52.618;13.488;2023-02-14T11:41:12;9.10;99.90
13850;DHT22;6995;52.618;13.488;2023-02-14T11:44:12;9.20;99.90
13850;DHT22;6995;52.618;13.488;2023-02-14T11:47:16;9.20;99.90
13850;DHT22;6995;52.618;13.488;2023-02-14T11:49:55;9.10;99.90
13850;DHT22;6995;52.618;13.488;2023-02-14T11:52:21;9.00;99.90
13850;DHT22;6995;52.618;13.488;2023-02-14T11:55:00;9.00;99.90
13850;DHT22;6995;52.618;13.488;2023-02-14T11:57:28;8.90;99.90
13850;DHT22;6995;52.618;13.488;2023-02-14T12:00:19;9.00;99.90
13850;DHT22;6995;52.618;13.488;2023-02-14T12:02:57;9.20;99.90
13850;DHT22;6995;52.618;13.488;2023-02-14T12:05:33;9.30;99.90
13850;DHT22;6995;52.618;13.488;2023-02-14T12:08:04;9.20;99.90
13850;DHT22;6995;52.618;13.488;2023-02-14T12:10:34;9.30;99.90
13850;DHT22;6995;52.618;13.488;2023-02-14T12:13:18;9.30;99.90
13850;DHT22;6995;52.618;13.488;2023-02-14T12:15:53;9.30;99.90
13850;DHT22;6995;52.618;13.488;2023-02-14T12:21:40;9.40;99.90
13850;DHT22;6995;52.618;13.488;2023-02-14T12:24:17;9.40;99.90
13850;DHT22;6995;52.618;13.488;2023-02-14T12:32:02;9.30;99.90
13850;DHT22;6995;52.618;13.488;2023-02-14T12:34:30;9.30;99.90
13850;DHT22;6995;52.618;13.488;2023-02-14T12:48:31;9.60;99.90
13850;DHT22;6995;52.618;13.488;2023-02-14T12:54:25;9.50;99.90
13850;DHT22;6995;52.618;13.488;2023-02-14T20:48:47;6.10;99.90
13850;DHT22;6995;52.618;13.488;2023-02-14T20:51:26;6.10;99.90
13850;DHT22;6995;52.618;13.488;2023-02-14T20:54:23;6.00;99.90
13850;DHT22;6995;52.618;13.488;2023-02-14T20:57:02;5.90;99.90
13850;DHT22;6995;52.618;13.488;2023-02-14T20:59:33;5.90;99.90
13850;DHT22;6995;52.618;13.488;2023-02-14T21:02:04;5.90;99.90
13850;DHT22;6995;52.618;13.488;2023-02-14T21:04:51;5.90;99.90
13850;DHT22;6995;52.618;13.488;2023-02-14T21:07:44;6.00;99.90
13850;DHT22;6995;52.618;13.488;2023-02-14T21:10:48;6.00;99.90
13850;DHT22;6995;52.618;13.488;2023-02-14T21:21:33;5.90;99.90
13850;DHT22;6995;52.618;13.488;2023-02-14T21:24:14;5.90;99.90
13850;DHT22;6995;52.618;13.488;2023-02-14T21:26:41;5.80;99.90
13850;DHT22;6995;52.618;13.488;2023-02-14T21:29:07;5.80;99.90
13850;DHT22;6995;52.618;13.488;2023-02-14T21:31:34;5.80;99.90
13850;DHT22;6995;52.618;13.488;2023-02-14T21:34:05;5.80;99.90
13850;DHT22;6995;52.618;13.488;2023-02-14T21:37:02;5.80;99.90
13850;DHT22;6995;52.618;13.488;2023-02-14T21:40:00;5.90;99.90
13850;DHT22;6995;52.618;13.488;2023-02-14T21:43:08;5.80;99.90
13850;DHT22;6995;52.618;13.488;2023-02-14T22:58:03;5.50;99.90
13850;DHT22;6995;52.618;13.488;2023-02-14T23:06:08;5.60;99.90
13850;DHT22;6995;52.618;13.488;2023-02-14T23:08:38;5.60;99.90
13850;DHT22;6995;52.618;13.488;2023-02-14T23:11:29;5.60;99.90
13850;DHT22;6995;52.618;13.488;2023-02-14T23:14:32;5.50;99.90
13850;DHT22;6995;52.618;13.488;2023-02-14T23:17:16;5.50;99.90
13850;DHT22;6995;52.618;13.488;2023-02-14T23:20:01;5.50;99.90
13850;DHT22;6995;52.618;13.488;2023-02-14T23:22:48;5.50;99.90
13850;DHT22;6995;52.618;13.488;2023-02-14T23:25:20;5.50;99.90
